Time;durP1;ratioP1;P1;durP2;ratioP2;P2;SDS_P1;SDS_P2;PMS_P1;PMS_P2;Temp;Humidity;BMP_temperature;BMP_pressure;BME280_temperature;BME280_humidity;BME280_pressure;Samples;Min_cycle;Max_cycle;Signal;HPM_P1;HPM_P2
2022/01/28 00:41:54;;;;;;;22.17;9.97;;;;;;;;;;6204906;23;20200;-90
2022/01/28 00:45:11;;;;;;;18.97;9.00;;;;;;;;;;6190651;23;20218;-87
2022/01/28 00:48:16;;;;;;;20.20;8.70;;;;;;;;;;6191767;23;20163;-89
2022/01/28 00:51:22;;;;;;;21.60;8.67;;;;;;;;;;6190545;23;20152;-91
2022/01/28 00:54:28;;;;;;;18.50;8.00;;;;;;;;;;6190147;23;20168;-90
2022/01/28 00:57:36;;;;;;;18.33;8.63;;;;;;;;;;6191136;23;20224;-92
2022/01/28 01:00:41;;;;;;;19.57;8.73;;;;;;;;;;6191361;23;20242;-90
2022/01/28 01:03:47;;;;;;;19.53;8.70;;;;;;;;;;6189984;23;20480;-90
2022/01/28 01:06:52;;;;;;;21.53;8.77;;;;;;;;;;6186172;23;20482;-89
2022/01/28 01:09:57;;;;;;;16.20;8.10;;;;;;;;;;6185123;23;20195;-92
2022/01/28 01:13:05;;;;;;;19.97;8.10;;;;;;;;;;6186493;23;20156;-92
2022/01/28 01:16:13;;;;;;;14.70;7.43;;;;;;;;;;6185610;23;20168;-90
2022/01/28 01:19:23;;;;;;;15.33;7.60;;;;;;;;;;6185899;23;20216;-90
2022/01/28 01:22:36;;;;;;;13.20;7.17;;;;;;;;;;6186510;23;20155;-90
2022/01/28 01:25:46;;;;;;;16.33;8.00;;;;;;;;;;6187174;23;20221;-90
2022/01/28 01:28:53;;;;;;;14.27;7.10;;;;;;;;;;6187255;23;20188;-91
2022/01/28 01:32:03;;;;;;;15.67;7.60;;;;;;;;;;6186442;23;20167;-91
2022/01/28 01:35:10;;;;;;;13.03;6.70;;;;;;;;;;6168234;23;20156;-90
2022/01/28 01:38:16;;;;;;;12.87;6.87;;;;;;;;;;6202137;23;20168;-91
2022/01/28 01:41:30;;;;;;;13.93;6.37;;;;;;;;;;6184245;23;20266;-91
2022/01/28 01:44:59;;;;;;;13.00;6.30;;;;;;;;;;6185958;23;20168;-91
2022/01/28 01:54:50;;;;;;;16.30;6.57;;;;;;;;;;6184144;23;20172;-90
2022/01/28 01:57:58;;;;;;;11.30;5.93;;;;;;;;;;6185910;23;20171;-93
2022/01/28 02:01:05;;;;;;;11.33;5.97;;;;;;;;;;6186347;23;20685;-91
2022/01/28 02:04:10;;;;;;;9.73;5.47;;;;;;;;;;6202024;23;20168;-91
2022/01/28 02:07:16;;;;;;;11.40;5.80;;;;;;;;;;6185554;23;20175;-91
2022/01/28 02:10:21;;;;;;;10.23;5.70;;;;;;;;;;6186497;23;20241;-91
2022/01/28 02:13:27;;;;;;;9.37;5.20;;;;;;;;;;6187874;23;20168;-91
2022/01/28 02:16:33;;;;;;;8.43;5.00;;;;;;;;;;6188379;23;20179;-92
2022/01/28 02:19:39;;;;;;;11.87;5.70;;;;;;;;;;6189304;23;20160;-89
2022/01/28 02:22:47;;;;;;;10.27;5.60;;;;;;;;;;6186018;23;20192;-92
2022/01/28 02:25:54;;;;;;;11.30;5.70;;;;;;;;;;6188558;23;20517;-90
2022/01/28 02:29:07;;;;;;;10.90;5.53;;;;;;;;;;6187351;23;20191;-91
2022/01/28 02:32:12;;;;;;;10.03;4.73;;;;;;;;;;6187377;23;20244;-91
2022/01/28 02:35:32;;;;;;;11.63;5.60;;;;;;;;;;6186504;23;20196;-90
2022/01/28 02:38:39;;;;;;;8.57;5.07;;;;;;;;;;6188523;23;20160;-90
2022/01/28 02:41:48;;;;;;;12.43;5.73;;;;;;;;;;6187941;23;20179;-90
2022/01/28 02:44:55;;;;;;;11.43;5.70;;;;;;;;;;6188704;23;20614;-90
2022/01/28 02:48:04;;;;;;;9.50;5.30;;;;;;;;;;6188578;23;20256;-91
2022/01/28 02:51:14;;;;;;;9.07;4.93;;;;;;;;;;6186592;23;20225;-90
2022/01/28 02:54:21;;;;;;;11.03;4.70;;;;;;;;;;6184996;23;20207;-91
2022/01/28 02:57:32;;;;;;;9.77;5.20;;;;;;;;;;6188409;23;20175;-89
2022/01/28 03:00:37;;;;;;;8.93;5.00;;;;;;;;;;6185125;23;20167;-92
2022/01/28 03:03:43;;;;;;;9.70;4.57;;;;;;;;;;6186243;23;20159;-91
2022/01/28 03:06:49;;;;;;;9.17;4.20;;;;;;;;;;6185060;23;20247;-90
2022/01/28 03:10:25;;;;;;;7.30;4.47;;;;;;;;;;6183807;23;20195;-91
2022/01/28 03:14:00;;;;;;;11.23;4.57;;;;;;;;;;6186351;23;20229;-90
2022/01/28 03:17:13;;;;;;;8.40;4.67;;;;;;;;;;6183534;23;20168;-90
2022/01/28 03:20:35;;;;;;;6.90;4.20;;;;;;;;;;6185276;23;20181;-89
2022/01/28 03:23:40;;;;;;;8.50;4.70;;;;;;;;;;6186041;23;20197;-92
2022/01/28 03:26:49;;;;;;;7.97;4.43;;;;;;;;;;6184775;23;20184;-90
2022/01/28 03:29:54;;;;;;;7.00;4.33;;;;;;;;;;6186119;23;20183;-91
2022/01/28 03:32:59;;;;;;;9.03;4.27;;;;;;;;;;6185711;23;20171;-90
2022/01/28 03:36:30;;;;;;;9.93;4.90;;;;;;;;;;6186197;23;20172;-88
2022/01/28 03:39:35;;;;;;;9.90;4.87;;;;;;;;;;6186780;23;20160;-92
2022/01/28 03:42:42;;;;;;;10.90;5.23;;;;;;;;;;6185815;23;20156;-91
2022/01/28 03:45:47;;;;;;;10.97;5.20;;;;;;;;;;6184376;23;20196;-90
2022/01/28 03:48:53;;;;;;;10.27;5.13;;;;;;;;;;6184255;23;20171;-89
2022/01/28 03:51:58;;;;;;;9.43;4.90;;;;;;;;;;6185645;23;20172;-91
2022/01/28 03:55:04;;;;;;;11.17;4.43;;;;;;;;;;6186759;23;20211;-89
2022/01/28 03:58:13;;;;;;;9.17;4.60;;;;;;;;;;6186737;23;20167;-90
2022/01/28 04:01:23;;;;;;;10.07;4.70;;;;;;;;;;6185966;23;20175;-91
2022/01/28 04:15:03;;;;;;;7.27;4.33;;;;;;;;;;6184779;23;20204;-90
2022/01/28 04:18:08;;;;;;;8.93;4.63;;;;;;;;;;6185228;23;20576;-92
2022/01/28 04:21:14;;;;;;;9.77;4.53;;;;;;;;;;6183546;23;20167;-90
2022/01/28 04:24:19;;;;;;;8.93;4.70;;;;;;;;;;6184028;23;20180;-90
2022/01/28 04:27:24;;;;;;;11.40;4.93;;;;;;;;;;6182824;23;20187;-91
2022/01/28 04:30:31;;;;;;;7.80;4.53;;;;;;;;;;6184348;23;20314;-93
2022/01/28 04:33:36;;;;;;;13.97;4.87;;;;;;;;;;6183464;23;20172;-88
2022/01/28 04:36:50;;;;;;;10.00;4.73;;;;;;;;;;6181573;23;20167;-92
2022/01/28 04:40:00;;;;;;;9.97;5.03;;;;;;;;;;6180437;23;20216;-92
2022/01/28 04:43:14;;;;;;;11.20;5.70;;;;;;;;;;6179804;23;20164;-89
2022/01/28 04:46:29;;;;;;;14.47;6.17;;;;;;;;;;6180225;23;20177;-90
2022/01/28 04:49:49;;;;;;;14.27;6.90;;;;;;;;;;6180219;23;20196;-90
2022/01/28 04:53:17;;;;;;;12.80;6.80;;;;;;;;;;6183745;23;20168;-90
2022/01/28 04:59:54;;;;;;;8.87;4.87;;;;;;;;;;6183883;23;20179;-91
2022/01/28 05:03:24;;;;;;;12.97;5.80;;;;;;;;;;6182187;23;20172;-90
2022/01/28 05:06:51;;;;;;;12.37;6.07;;;;;;;;;;6183362;23;20168;-91
2022/01/28 05:10:25;;;;;;;7.53;4.10;;;;;;;;;;6181488;23;20179;-91
2022/01/28 16:03:36;;;;;;;13.00;2.83;;;;;;;;;;6046332;22;4936105;-90
2022/01/28 16:06:48;;;;;;;13.00;2.60;;;;;;;;;;6246590;23;20286;-89
2022/01/28 16:10:03;;;;;;;17.37;4.80;;;;;;;;;;6247898;22;20174;-89
2022/01/28 16:13:39;;;;;;;20.93;4.17;;;;;;;;;;6243022;23;20173;-89
2022/01/28 16:20:13;;;;;;;15.63;3.20;;;;;;;;;;6244454;23;20194;-90
2022/01/28 16:23:18;;;;;;;15.93;3.07;;;;;;;;;;6245218;23;20223;-90
2022/01/28 16:26:23;;;;;;;10.23;2.47;;;;;;;;;;6244657;23;20276;-91
2022/01/28 16:29:29;;;;;;;18.23;4.10;;;;;;;;;;6246230;23;20173;-91
2022/01/28 16:32:35;;;;;;;18.00;2.50;;;;;;;;;;6245999;23;20210;-89
2022/01/28 16:35:57;;;;;;;18.30;4.23;;;;;;;;;;6246262;22;20166;-90
2022/01/28 23:01:35;;;;;;;21.53;4.53;;;;;;;;;;6191842;22;1458685;-90
2022/01/28 23:04:40;;;;;;;16.90;3.80;;;;;;;;;;6234685;23;20167;-90
2022/01/28 23:07:49;;;;;;;14.40;3.73;;;;;;;;;;6236890;23;20191;-92
2022/01/28 23:10:54;;;;;;;19.97;4.07;;;;;;;;;;6236608;23;20316;-91
2022/01/28 23:14:00;;;;;;;13.90;4.07;;;;;;;;;;6235694;23;20154;-90
2022/01/28 23:17:21;;;;;;;16.13;4.73;;;;;;;;;;6234569;23;20170;-89
2022/01/28 23:20:45;;;;;;;23.00;5.90;;;;;;;;;;6235498;23;20256;-89
2022/01/28 23:23:51;;;;;;;17.90;5.43;;;;;;;;;;6235387;23;20187;-87
2022/01/28 23:27:00;;;;;;;20.83;4.60;;;;;;;;;;6235496;23;20172;-90
2022/01/28 23:30:07;;;;;;;16.63;4.57;;;;;;;;;;6233808;23;20167;-88
2022/01/28 23:33:13;;;;;;;16.83;4.53;;;;;;;;;;6236697;23;20168;-90
2022/01/28 23:36:20;;;;;;;16.57;4.00;;;;;;;;;;6235688;23;20214;-92
2022/01/28 23:39:28;;;;;;;17.33;4.50;;;;;;;;;;6234311;23;20151;-89
2022/01/28 23:42:33;;;;;;;20.30;5.13;;;;;;;;;;6234527;23;20175;-89
2022/01/28 23:45:40;;;;;;;21.80;4.70;;;;;;;;;;6233222;23;20163;-90
2022/01/28 23:48:45;;;;;;;16.33;5.20;;;;;;;;;;6234263;23;20154;-93
2022/01/28 23:51:53;;;;;;;17.20;5.00;;;;;;;;;;6232737;23;20167;-92
2022/01/28 23:54:59;;;;;;;16.00;4.80;;;;;;;;;;6232938;23;20166;-90
2022/01/28 23:58:04;;;;;;;15.43;4.73;;;;;;;;;;6234286;23;20167;-89
